createdAt,value
2024-04-09T00:01:49.724Z,20.58
2024-04-09T00:04:20.167Z,20.58
2024-04-09T00:06:50.421Z,20.58
2024-04-09T00:09:22.550Z,20.57
2024-04-09T00:11:54.806Z,20.55
2024-04-09T00:14:22.439Z,20.56
2024-04-09T00:16:56.995Z,20.56
2024-04-09T00:19:27.529Z,20.55
2024-04-09T00:21:57.921Z,20.53
2024-04-09T00:24:26.955Z,20.53
2024-04-09T00:26:57.174Z,20.53
2024-04-09T00:29:24.862Z,20.53
2024-04-09T00:31:55.024Z,20.51
2024-04-09T00:34:24.168Z,20.50
2024-04-09T00:36:57.768Z,20.51
2024-04-09T00:39:27.796Z,20.49
2024-04-09T00:41:58.217Z,20.49
2024-04-09T00:44:26.932Z,20.50
2024-04-09T00:46:57.843Z,20.49
2024-04-09T00:49:25.776Z,20.50
2024-04-09T00:51:58.896Z,20.49
2024-04-09T00:54:29.555Z,20.48
2024-04-09T00:57:02.866Z,20.49
2024-04-09T00:59:30.572Z,20.48
2024-04-09T01:02:01.334Z,20.48
2024-04-09T01:04:29.161Z,20.47
2024-04-09T01:07:02.084Z,20.47
2024-04-09T01:09:32.410Z,20.47
2024-04-09T01:12:02.693Z,20.47
2024-04-09T01:14:30.299Z,20.46
2024-04-09T01:17:04.364Z,20.45
2024-04-09T01:19:32.052Z,20.46
2024-04-09T01:22:07.974Z,20.45
2024-04-09T01:24:38.263Z,20.45
2024-04-09T01:27:14.657Z,20.45
2024-04-09T01:29:42.993Z,20.45
2024-04-09T01:32:14.192Z,20.45
2024-04-09T01:34:41.905Z,20.45
2024-04-09T01:37:19.255Z,20.45
2024-04-09T01:39:50.116Z,20.44
2024-04-09T01:42:22.751Z,20.45
2024-04-09T01:44:50.425Z,20.44
2024-04-09T01:47:20.688Z,20.45
2024-04-09T01:49:48.279Z,20.43
2024-04-09T01:52:18.641Z,20.44
2024-04-09T01:54:51.540Z,20.44
2024-04-09T01:57:19.183Z,20.45
2024-04-09T01:59:49.295Z,20.44
2024-04-09T02:02:17.931Z,20.44
2024-04-09T02:04:48.255Z,20.43
2024-04-09T02:07:15.967Z,20.41
2024-04-09T02:09:46.184Z,20.42
2024-04-09T02:12:16.548Z,20.43
2024-04-09T02:14:46.756Z,20.41
2024-04-09T02:17:14.370Z,20.42
2024-04-09T02:19:47.313Z,20.40
2024-04-09T02:22:14.900Z,20.41
2024-04-09T02:24:48.353Z,20.42
2024-04-09T02:27:18.876Z,20.39
2024-04-09T02:29:49.359Z,20.40
2024-04-09T02:32:17.016Z,20.40
2024-04-09T02:34:47.175Z,20.40
2024-04-09T02:37:14.771Z,20.40
2024-04-09T02:39:45.947Z,20.40
2024-04-09T02:42:15.282Z,20.40
2024-04-09T02:44:49.141Z,20.39
2024-04-09T02:47:17.037Z,20.39
2024-04-09T02:49:48.176Z,20.40
2024-04-09T02:52:15.776Z,20.39
2024-04-09T02:54:48.751Z,20.39
2024-04-09T02:57:16.423Z,20.38
2024-04-09T02:59:49.248Z,20.39
2024-04-09T03:02:16.834Z,20.40
2024-04-09T03:04:47.077Z,20.41
2024-04-09T03:07:17.693Z,20.39
2024-04-09T03:09:47.899Z,20.40
2024-04-09T03:12:15.516Z,20.39
2024-04-09T03:14:48.807Z,20.35
2024-04-09T03:17:16.325Z,20.37
2024-04-09T03:19:48.590Z,20.34
2024-04-09T03:22:18.130Z,20.33
2024-04-09T03:24:51.455Z,20.35
2024-04-09T03:27:19.070Z,20.33
2024-04-09T03:30:02.082Z,20.34
2024-04-09T03:32:29.870Z,20.36
2024-04-09T03:35:00.031Z,20.35
2024-04-09T03:37:27.793Z,20.35
2024-04-09T03:40:00.886Z,20.35
2024-04-09T03:42:31.206Z,20.35
2024-04-09T03:45:01.584Z,20.35
2024-04-09T03:47:31.931Z,20.35
2024-04-09T03:49:59.663Z,20.35
2024-04-09T03:52:29.809Z,20.34
2024-04-09T03:54:57.366Z,20.34
2024-04-09T03:57:27.631Z,20.36
2024-04-09T04:00:06.022Z,20.36
2024-04-09T04:02:36.319Z,20.36
2024-04-09T04:05:04.162Z,20.35
2024-04-09T04:07:34.944Z,20.36
2024-04-09T04:10:02.464Z,20.35
2024-04-09T04:12:32.729Z,20.36
2024-04-09T04:15:00.454Z,20.35
2024-04-09T04:17:33.460Z,20.35
2024-04-09T04:20:01.116Z,20.34
2024-04-09T04:22:31.261Z,20.34
2024-04-09T04:24:59.026Z,20.34
2024-04-09T04:27:29.186Z,20.33
2024-04-09T04:29:56.842Z,20.34
2024-04-09T04:32:27.090Z,20.32
2024-04-09T04:34:57.425Z,20.31
2024-04-09T04:37:27.807Z,20.31
2024-04-09T04:39:55.910Z,20.31
2024-04-09T04:42:27.259Z,20.33
2024-04-09T04:44:54.900Z,20.33
2024-04-09T04:47:25.161Z,20.35
2024-04-09T04:49:53.757Z,20.32
2024-04-09T04:52:26.542Z,20.33
2024-04-09T04:54:55.689Z,20.32
2024-04-09T04:57:26.978Z,20.32
2024-04-09T04:59:55.172Z,20.34
2024-04-09T05:02:25.691Z,20.33
2024-04-09T05:04:55.830Z,20.34
2024-04-09T05:07:28.631Z,20.34
2024-04-09T05:09:56.286Z,20.31
2024-04-09T05:12:26.455Z,20.31
2024-04-09T05:14:57.174Z,20.29
2024-04-09T05:17:27.438Z,20.31
2024-04-09T05:19:55.132Z,20.30
2024-04-09T05:22:26.582Z,20.29
2024-04-09T05:24:56.870Z,20.29
2024-04-09T05:27:27.273Z,20.28
2024-04-09T05:29:57.788Z,20.29
2024-04-09T05:32:29.100Z,20.28
2024-04-09T05:34:56.929Z,20.28
2024-04-09T05:37:27.082Z,20.28
2024-04-09T05:39:59.316Z,20.27
2024-04-09T05:42:29.264Z,20.29
2024-04-09T05:44:56.963Z,20.28
2024-04-09T05:47:27.413Z,20.29
2024-04-09T05:49:56.799Z,20.29
2024-04-09T05:52:32.648Z,20.28
2024-04-09T05:55:02.908Z,20.26
2024-04-09T05:57:39.253Z,20.28
2024-04-09T06:00:15.885Z,20.28
2024-04-09T06:02:49.385Z,20.19
2024-04-09T06:05:18.286Z,20.14
2024-04-09T06:07:49.684Z,20.13
2024-04-09T06:10:20.756Z,20.11
2024-04-09T06:12:51.174Z,20.12
2024-04-09T06:15:18.908Z,20.12
2024-04-09T06:17:49.368Z,20.14
2024-04-09T06:20:17.316Z,20.16
2024-04-09T06:22:47.480Z,20.17
2024-04-09T06:25:15.235Z,20.20
2024-04-09T06:27:48.346Z,20.22
2024-04-09T06:30:16.088Z,20.24
2024-04-09T06:32:46.688Z,20.25
2024-04-09T06:35:14.507Z,20.25
2024-04-09T06:37:45.673Z,20.27
2024-04-09T06:40:15.687Z,20.29
2024-04-09T06:42:48.523Z,20.29
2024-04-09T06:45:16.262Z,20.29
2024-04-09T06:47:46.547Z,20.29
2024-04-09T06:50:16.842Z,20.32
2024-04-09T06:52:44.569Z,20.30
2024-04-09T06:55:14.700Z,20.31
2024-04-09T06:57:44.945Z,20.31
2024-04-09T07:00:19.392Z,20.33
2024-04-09T07:02:47.040Z,20.34
2024-04-09T07:05:17.388Z,20.31
2024-04-09T07:07:47.648Z,20.31
2024-04-09T07:10:17.968Z,20.27
2024-04-09T07:12:48.211Z,20.28
2024-04-09T07:15:18.646Z,20.28
2024-04-09T07:17:46.314Z,20.25
2024-04-09T07:20:16.617Z,20.22
2024-04-09T07:22:45.079Z,20.21
2024-04-09T07:25:15.807Z,20.22
2024-04-09T07:27:44.799Z,20.25
2024-04-09T07:30:17.954Z,20.25
2024-04-09T07:32:45.595Z,20.27
2024-04-09T07:35:15.811Z,20.27
2024-04-09T07:37:43.405Z,20.27
2024-04-09T07:40:13.933Z,20.27
2024-04-09T07:42:41.661Z,20.28
2024-04-09T07:45:17.689Z,20.27
2024-04-09T07:47:46.097Z,20.28
2024-04-09T07:50:16.833Z,20.29
2024-04-09T07:52:47.368Z,20.30
2024-04-09T07:55:17.820Z,20.29
2024-04-09T07:57:48.083Z,20.30
2024-04-09T08:00:21.608Z,20.30
2024-04-09T08:02:49.224Z,20.30
2024-04-09T08:05:19.874Z,20.33
2024-04-09T08:07:48.041Z,20.33
2024-04-09T08:10:20.964Z,20.34
2024-04-09T08:12:51.309Z,20.34
2024-04-09T08:15:25.475Z,20.33
2024-04-09T08:17:53.416Z,20.32
2024-04-09T08:20:26.662Z,20.32
2024-04-09T08:22:54.615Z,20.31
2024-04-09T08:25:25.371Z,20.29
2024-04-09T08:27:53.088Z,20.30
2024-04-09T08:30:28.384Z,20.28
2024-04-09T08:32:56.535Z,20.28
2024-04-09T08:35:26.785Z,20.27
2024-04-09T08:37:56.365Z,20.26
2024-04-09T08:40:27.180Z,20.25
2024-04-09T08:43:01.324Z,20.23
2024-04-09T08:45:35.245Z,20.24
2024-04-09T08:48:06.892Z,20.23
2024-04-09T08:50:37.600Z,20.23
2024-04-09T08:53:05.947Z,20.24
2024-04-09T08:55:40.071Z,20.22
2024-04-09T08:58:07.733Z,20.25
2024-04-09T09:00:41.357Z,20.21
2024-04-09T09:03:09.227Z,20.19
2024-04-09T09:05:42.610Z,20.19
2024-04-09T09:08:10.558Z,20.14
2024-04-09T09:10:40.894Z,20.13
2024-04-09T09:13:08.510Z,20.12
2024-04-09T09:15:42.317Z,20.11
2024-04-09T09:18:10.065Z,20.14
2024-04-09T09:20:40.700Z,20.14
2024-04-09T09:23:08.377Z,20.16
2024-04-09T09:25:46.208Z,20.19
2024-04-09T09:28:13.877Z,20.20
2024-04-09T09:30:50.441Z,20.18
2024-04-09T09:33:21.717Z,20.15
2024-04-09T09:35:54.598Z,20.13
2024-04-09T09:38:23.898Z,20.08
2024-04-09T09:40:55.609Z,20.02
2024-04-09T09:43:25.070Z,20.02
2024-04-09T09:46:00.921Z,19.88
2024-04-09T09:48:29.582Z,19.85
2024-04-09T09:51:00.210Z,19.85
2024-04-09T09:53:30.458Z,19.85
2024-04-09T09:56:06.983Z,19.78
2024-04-09T09:58:38.336Z,19.78
2024-04-09T10:01:14.388Z,19.79
2024-04-09T10:03:42.518Z,19.80
2024-04-09T10:06:15.830Z,19.77
2024-04-09T10:08:43.847Z,19.80
2024-04-09T10:11:15.881Z,19.79
2024-04-09T10:13:51.453Z,19.78
2024-04-09T10:16:26.832Z,19.76
2024-04-09T10:18:56.696Z,19.73
2024-04-09T10:21:33.038Z,19.68
2024-04-09T10:24:00.926Z,19.64
2024-04-09T10:26:31.203Z,19.62
2024-04-09T10:29:04.931Z,19.64
2024-04-09T10:31:47.819Z,19.62
2024-04-09T10:34:24.834Z,19.62
2024-04-09T10:36:55.553Z,19.63
2024-04-09T10:39:25.769Z,19.60
2024-04-09T10:42:01.243Z,19.52
2024-04-09T10:44:29.398Z,19.43
2024-04-09T10:47:02.716Z,19.42
2024-04-09T10:49:31.463Z,19.42
2024-04-09T10:52:01.739Z,19.29
2024-04-09T10:54:29.762Z,19.27
2024-04-09T10:57:03.404Z,19.24
2024-04-09T10:59:31.488Z,19.22
2024-04-09T11:02:06.590Z,19.24
2024-04-09T11:04:37.866Z,19.23
2024-04-09T11:07:10.887Z,19.24
2024-04-09T11:09:38.702Z,19.25
2024-04-09T11:12:10.776Z,19.25
2024-04-09T11:14:40.358Z,19.24
2024-04-09T11:17:20.952Z,19.23
2024-04-09T11:19:50.612Z,19.24
2024-04-09T11:22:21.277Z,19.25
2024-04-09T11:24:51.542Z,19.30
2024-04-09T11:27:21.866Z,19.35
2024-04-09T11:29:49.672Z,19.42
2024-04-09T11:32:23.033Z,19.48
2024-04-09T11:34:51.273Z,19.53
2024-04-09T11:37:23.426Z,19.32
2024-04-09T11:39:51.520Z,19.08
2024-04-09T11:42:21.759Z,19.18
2024-04-09T11:45:03.047Z,19.21
2024-04-09T11:47:33.380Z,19.30
2024-04-09T11:50:05.657Z,19.36
2024-04-09T11:52:33.257Z,19.43
2024-04-09T11:55:03.717Z,19.51
2024-04-09T11:57:31.492Z,19.57
2024-04-09T12:00:04.714Z,19.63
2024-04-09T12:02:37.700Z,19.69
2024-04-09T12:05:08.652Z,19.70
2024-04-09T12:07:36.296Z,19.75
2024-04-09T12:10:06.566Z,19.78
2024-04-09T12:12:37.164Z,19.80
2024-04-09T12:15:08.477Z,19.82
2024-04-09T12:17:39.077Z,19.85
2024-04-09T12:20:10.926Z,19.89
2024-04-09T12:22:38.687Z,19.90
2024-04-09T12:25:09.387Z,19.93
2024-04-09T12:27:37.119Z,19.94
2024-04-09T12:30:09.542Z,19.95
2024-04-09T12:32:42.453Z,19.97
2024-04-09T12:35:16.465Z,19.98
2024-04-09T12:37:45.044Z,19.98
2024-04-09T12:40:15.305Z,19.99
2024-04-09T12:42:46.117Z,20.01
2024-04-09T12:45:17.173Z,20.02
2024-04-09T12:47:47.564Z,20.02
2024-04-09T12:50:18.189Z,20.04
2024-04-09T12:52:46.389Z,20.04
2024-04-09T12:55:16.559Z,20.04
2024-04-09T12:57:44.323Z,20.05
2024-04-09T13:00:32.149Z,20.07
2024-04-09T13:03:06.703Z,20.06
2024-04-09T13:05:37.499Z,20.07
2024-04-09T13:08:07.832Z,20.07
2024-04-09T13:10:40.935Z,20.08
2024-04-09T13:13:09.147Z,20.10
2024-04-09T13:18:12.524Z,20.10
2024-04-09T13:20:42.906Z,20.10
2024-04-09T13:23:10.690Z,20.12
2024-04-09T13:25:41.075Z,20.11
2024-04-09T13:28:08.641Z,20.13
2024-04-09T13:30:41.622Z,20.14
2024-04-09T13:33:14.448Z,20.14
2024-04-09T13:35:44.724Z,20.14
2024-04-09T13:38:12.409Z,20.16
2024-04-09T13:40:48.388Z,20.15
2024-04-09T13:43:18.952Z,20.17
2024-04-09T13:45:49.337Z,20.17
2024-04-09T13:48:19.991Z,20.18
2024-04-09T13:50:51.279Z,20.18
2024-04-09T13:53:19.757Z,20.18
2024-04-09T13:55:50.071Z,20.18
2024-04-09T13:58:19.802Z,20.19
2024-04-09T14:00:50.239Z,20.19
2024-04-09T14:03:20.616Z,20.19
2024-04-09T14:05:53.356Z,20.18
2024-04-09T14:08:20.956Z,20.17
2024-04-09T14:10:51.430Z,20.20
2024-04-09T14:13:19.470Z,20.20
2024-04-09T14:15:49.631Z,20.20
2024-04-09T14:18:20.021Z,20.21
2024-04-09T14:20:52.999Z,20.21
2024-04-09T14:23:24.133Z,20.23
2024-04-09T14:25:56.800Z,20.23
2024-04-09T14:28:24.424Z,20.24
2024-04-09T14:30:54.631Z,20.25
2024-04-09T14:33:25.127Z,20.25
2024-04-09T14:35:55.382Z,20.26
2024-04-09T14:38:23.158Z,20.26
2024-04-09T14:40:56.612Z,20.28
2024-04-09T14:43:24.244Z,20.28
2024-04-09T14:45:55.783Z,20.27
2024-04-09T14:48:26.301Z,20.29
2024-04-09T14:50:56.672Z,20.29
2024-04-09T14:53:24.727Z,20.30
2024-04-09T14:55:55.059Z,20.31
2024-04-09T14:58:22.760Z,20.31
2024-04-09T15:00:55.669Z,20.32
2024-04-09T15:03:26.116Z,20.33
2024-04-09T15:05:57.668Z,20.33
2024-04-09T15:08:28.633Z,20.33
2024-04-09T15:11:03.955Z,20.33
2024-04-09T15:13:32.082Z,20.34
2024-04-09T15:16:02.692Z,20.34
2024-04-09T15:18:35.732Z,20.35
2024-04-09T15:21:06.166Z,20.35
2024-04-09T15:23:34.381Z,20.35
2024-04-09T15:26:05.750Z,20.37
2024-04-09T15:28:37.916Z,20.36
2024-04-09T15:31:09.597Z,20.36
2024-04-09T15:33:40.018Z,20.37
2024-04-09T15:36:12.523Z,20.37
2024-04-09T15:38:40.506Z,20.37
2024-04-09T15:41:10.751Z,20.39
2024-04-09T15:43:38.289Z,20.39
2024-04-09T15:46:09.222Z,20.40
2024-04-09T15:48:39.747Z,20.40
2024-04-09T15:51:10.140Z,20.41
2024-04-09T15:53:38.528Z,20.42
2024-04-09T15:56:10.009Z,20.43
2024-04-09T15:58:37.804Z,20.44
2024-04-09T16:01:08.216Z,20.45
2024-04-09T16:03:44.261Z,20.45
2024-04-09T16:06:15.275Z,20.45
2024-04-09T16:08:42.954Z,20.45
2024-04-09T16:11:13.298Z,20.45
2024-04-09T16:13:44.762Z,20.45
2024-04-09T16:16:16.430Z,20.46
2024-04-09T16:18:48.475Z,20.45
2024-04-09T16:21:18.951Z,20.46
2024-04-09T16:23:47.617Z,20.45
2024-04-09T16:26:17.816Z,20.46
2024-04-09T16:28:46.271Z,20.47
2024-04-09T16:31:16.434Z,20.45
2024-04-09T16:33:47.299Z,20.39
2024-04-09T16:36:17.970Z,20.35
2024-04-09T16:38:45.749Z,20.36
2024-04-09T16:41:16.094Z,20.39
2024-04-09T16:43:43.820Z,20.39
2024-04-09T16:46:14.424Z,20.41
2024-04-09T16:48:43.021Z,20.44
2024-04-09T16:51:17.037Z,20.42
2024-04-09T16:53:45.163Z,20.43
2024-04-09T16:56:15.369Z,20.46
2024-04-09T16:58:43.132Z,20.48
2024-04-09T17:01:13.386Z,20.53
2024-04-09T17:03:44.030Z,20.58
2024-04-09T17:06:17.025Z,20.61
2024-04-09T17:08:44.617Z,20.65
2024-04-09T17:11:14.910Z,20.67
2024-04-09T17:13:45.147Z,20.70
2024-04-09T17:16:17.193Z,20.73
2024-04-09T17:18:44.969Z,20.75
2024-04-09T17:21:17.867Z,20.75
2024-04-09T17:23:45.466Z,20.75
2024-04-09T17:26:15.728Z,20.76
2024-04-09T17:28:43.443Z,20.78
2024-04-09T17:31:16.457Z,20.79
2024-04-09T17:33:44.187Z,20.82
2024-04-09T17:36:14.455Z,20.84
2024-04-09T17:38:48.825Z,20.83
2024-04-09T17:41:19.192Z,20.85
2024-04-09T17:43:48.043Z,20.86
2024-04-09T17:46:18.283Z,20.87
2024-04-09T17:48:46.015Z,20.89
2024-04-09T17:51:18.365Z,20.90
2024-04-09T17:53:48.683Z,20.92
2024-04-09T17:56:19.018Z,20.95
2024-04-09T17:58:49.201Z,20.95
2024-04-09T18:01:22.837Z,20.96
2024-04-09T18:03:57.421Z,20.97
2024-04-09T18:06:28.192Z,20.98
2024-04-09T18:08:58.482Z,20.98
2024-04-09T18:11:29.514Z,21.00
2024-04-09T18:13:57.380Z,21.01
2024-04-09T18:16:27.588Z,21.00
2024-04-09T18:18:57.999Z,21.03
2024-04-09T18:21:30.117Z,21.02
2024-04-09T18:24:03.048Z,21.04
2024-04-09T18:26:33.371Z,21.05
2024-04-09T18:29:01.057Z,21.07
2024-04-09T18:31:31.300Z,21.09
2024-04-09T18:33:59.412Z,21.08
2024-04-09T18:36:29.709Z,21.08
2024-04-09T18:38:59.160Z,21.08
2024-04-09T18:41:33.252Z,21.09
2024-04-09T18:44:01.012Z,21.09
2024-04-09T18:46:31.230Z,21.08
2024-04-09T18:48:59.070Z,21.10
2024-04-09T18:51:29.311Z,21.10
2024-04-09T18:53:59.630Z,21.12
2024-04-09T18:56:35.916Z,21.13
2024-04-09T18:59:03.690Z,21.14
2024-04-09T19:01:36.723Z,21.14
2024-04-09T19:04:06.678Z,21.16
2024-04-09T19:06:36.985Z,21.14
2024-04-09T19:09:05.802Z,21.12
2024-04-09T19:11:38.789Z,21.05
2024-04-09T19:14:06.471Z,21.07
2024-04-09T19:16:36.683Z,21.11
2024-04-09T19:19:05.228Z,21.15
2024-04-09T19:21:35.421Z,21.17
2024-04-09T19:24:03.050Z,21.19
2024-04-09T19:26:34.147Z,21.19
2024-04-09T19:29:05.314Z,21.22
2024-04-09T19:31:35.642Z,21.22
2024-04-09T19:34:04.846Z,21.23
2024-04-09T19:36:35.152Z,21.24
2024-04-09T19:39:02.701Z,21.25
2024-04-09T19:41:35.423Z,21.25
2024-04-09T19:44:17.379Z,21.26
2024-04-09T19:46:52.422Z,21.24
2024-04-09T19:49:22.201Z,21.23
2024-04-09T19:51:55.315Z,21.22
2024-04-09T19:54:23.189Z,21.22
2024-04-09T19:56:53.657Z,21.24
2024-04-09T19:59:24.061Z,21.21
2024-04-09T20:01:55.826Z,21.24
2024-04-09T20:04:26.935Z,21.22
2024-04-09T20:07:00.285Z,21.21
2024-04-09T20:09:28.143Z,21.20
2024-04-09T20:11:58.646Z,21.18
2024-04-09T20:14:28.961Z,21.17
2024-04-09T20:16:59.321Z,21.16
2024-04-09T20:19:27.565Z,21.16
2024-04-09T20:21:57.719Z,21.15
2024-04-09T20:24:25.393Z,21.13
2024-04-09T20:26:55.550Z,21.13
2024-04-09T20:29:23.228Z,21.14
2024-04-09T20:31:57.102Z,21.12
2024-04-09T20:34:24.956Z,21.11
2024-04-09T20:36:55.216Z,21.11
2024-04-09T20:39:25.498Z,21.09
2024-04-09T20:41:56.392Z,21.11
2024-04-09T20:44:25.767Z,21.09
2024-04-09T20:46:58.780Z,21.09
2024-04-09T20:49:26.586Z,21.09
2024-04-09T20:51:56.824Z,21.09
2024-04-09T20:54:24.495Z,21.09
2024-04-09T20:56:55.800Z,21.10
2024-04-09T20:59:23.438Z,21.09
2024-04-09T21:01:53.663Z,21.01
2024-04-09T21:04:24.058Z,20.96
2024-04-09T21:07:00.728Z,20.96
2024-04-09T21:09:28.452Z,20.97
2024-04-09T21:12:05.492Z,20.96
2024-04-09T21:14:33.613Z,20.98
2024-04-09T21:17:04.366Z,20.98
2024-04-09T21:19:34.636Z,20.98
2024-04-09T21:22:04.879Z,20.97
2024-04-09T21:24:39.072Z,20.97
2024-04-09T21:27:15.626Z,20.97
2024-04-09T21:29:44.160Z,20.96
2024-04-09T21:32:14.392Z,20.96
2024-04-09T21:34:44.787Z,20.95
2024-04-09T21:37:15.035Z,20.95
2024-04-09T21:39:42.835Z,20.95
2024-04-09T21:42:13.014Z,20.95
2024-04-09T21:44:43.710Z,20.95
2024-04-09T21:47:13.936Z,20.95
2024-04-09T21:49:44.320Z,20.95
2024-04-09T21:52:14.556Z,20.95
2024-04-09T21:54:42.226Z,20.95
2024-04-09T21:57:12.392Z,20.95
2024-04-09T21:59:39.924Z,20.93
2024-04-09T22:02:11.461Z,20.93
2024-04-09T22:04:41.346Z,20.93
2024-04-09T22:07:14.508Z,20.92
2024-04-09T22:09:43.470Z,20.93
2024-04-09T22:12:14.039Z,20.91
2024-04-09T22:14:41.652Z,20.91
2024-04-09T22:17:11.910Z,20.92
2024-04-09T22:19:40.732Z,20.90
2024-04-09T22:22:13.934Z,20.90
2024-04-09T22:24:41.627Z,20.91
2024-04-09T22:27:11.881Z,20.91
2024-04-09T22:29:39.505Z,20.91
2024-04-09T22:32:09.947Z,20.91
2024-04-09T22:34:37.806Z,20.92
2024-04-09T22:37:13.348Z,20.91
2024-04-09T22:39:41.244Z,20.89
2024-04-09T22:42:11.531Z,20.89
2024-04-09T22:44:39.258Z,20.90
2024-04-09T22:47:09.683Z,20.89
2024-04-09T22:49:37.380Z,20.89
2024-04-09T22:52:10.077Z,20.88
2024-04-09T22:54:40.458Z,20.88
2024-04-09T22:57:10.750Z,20.87
2024-04-09T22:59:38.433Z,20.87
2024-04-09T23:02:09.029Z,20.86
2024-04-09T23:04:37.014Z,20.87
2024-04-09T23:07:07.566Z,20.85
2024-04-09T23:09:35.323Z,20.85
2024-04-09T23:12:09.141Z,20.86
2024-04-09T23:14:36.955Z,20.87
2024-04-09T23:17:07.558Z,20.87
2024-04-09T23:19:35.262Z,20.86
2024-04-09T23:22:06.003Z,20.86
2024-04-09T23:24:33.766Z,20.86
2024-04-09T23:27:07.143Z,20.84
2024-04-09T23:29:37.936Z,20.87
2024-04-09T23:32:08.714Z,20.88
2024-04-09T23:34:36.519Z,20.89
2024-04-09T23:37:06.786Z,20.89
2024-04-09T23:39:34.437Z,20.86
2024-04-09T23:42:06.041Z,20.86
2024-04-09T23:44:34.503Z,20.85
2024-04-09T23:47:07.762Z,20.87
2024-04-09T23:49:35.451Z,20.87
2024-04-09T23:52:05.841Z,20.87
2024-04-09T23:54:33.428Z,20.86
2024-04-09T23:57:03.961Z,20.85
2024-04-09T23:59:31.822Z,20.85
